createdAt,value
2023-03-03T00:03:34.000Z,22.58
2023-03-03T00:08:38.821Z,23.90
2023-03-03T00:13:47.604Z,22.97
2023-03-03T00:18:51.283Z,22.38
2023-03-03T00:23:56.712Z,24.70
2023-03-03T00:34:22.856Z,24.70
2023-03-03T00:39:32.822Z,20.92
2023-03-03T00:44:46.106Z,24.75
2023-03-03T00:49:49.352Z,20.70
2023-03-03T00:54:54.004Z,20.70
2023-03-03T00:59:57.333Z,21.90
2023-03-03T01:05:00.558Z,20.02
2023-03-03T01:10:05.475Z,23.70
2023-03-03T01:15:10.946Z,20.92
2023-03-03T01:25:19.907Z,20.25
2023-03-03T01:30:23.645Z,16.52
2023-03-03T01:35:27.113Z,18.55
2023-03-03T01:40:33.017Z,22.35
2023-03-03T01:46:06.781Z,20.02
2023-03-03T01:51:19.813Z,19.80
2023-03-03T01:56:24.539Z,18.58
2023-03-03T02:01:29.962Z,20.90
2023-03-03T02:11:43.593Z,21.00
2023-03-03T02:16:46.901Z,18.48
2023-03-03T02:21:50.202Z,20.42
2023-03-03T02:26:54.821Z,19.88
2023-03-03T02:31:58.195Z,17.63
2023-03-03T02:37:01.958Z,17.98
2023-03-03T02:42:13.392Z,19.92
2023-03-03T02:47:16.677Z,16.10
2023-03-03T02:52:19.794Z,18.05
2023-03-03T02:57:24.336Z,18.40
2023-03-03T03:02:27.588Z,18.30
2023-03-03T03:07:30.717Z,20.00
2023-03-03T03:12:35.290Z,19.88
2023-03-03T03:17:39.186Z,19.13
2023-03-03T03:22:42.423Z,18.27
2023-03-03T03:27:46.945Z,18.80
2023-03-03T03:32:50.139Z,18.67
2023-03-03T03:37:53.252Z,19.17
2023-03-03T03:42:58.219Z,20.85
2023-03-03T03:48:01.430Z,22.67
2023-03-03T03:53:04.849Z,18.92
2023-03-03T03:58:09.751Z,15.73
2023-03-03T04:03:14.792Z,16.92
2023-03-03T04:08:18.133Z,17.83
2023-03-03T04:13:23.430Z,15.18
2023-03-03T04:18:26.585Z,19.83
2023-03-03T04:23:29.847Z,16.58
2023-03-03T04:28:34.539Z,18.75
2023-03-03T04:33:37.751Z,16.53
2023-03-03T04:38:40.866Z,16.50
2023-03-03T04:43:45.437Z,15.15
2023-03-03T04:48:48.686Z,13.93
2023-03-03T04:53:51.898Z,16.77
2023-03-03T04:58:56.941Z,14.57
2023-03-03T05:04:00.134Z,15.18
2023-03-03T05:09:03.902Z,17.85
2023-03-03T05:14:08.881Z,17.02
2023-03-03T05:19:12.017Z,13.93
2023-03-03T05:24:15.806Z,16.83
2023-03-03T05:29:20.368Z,17.25
2023-03-03T05:34:23.514Z,14.20
2023-03-03T05:39:26.617Z,13.45
2023-03-03T05:44:31.213Z,15.65
2023-03-03T05:49:34.355Z,13.97
2023-03-03T05:54:37.841Z,14.45
2023-03-03T05:59:42.383Z,14.23
2023-03-03T06:04:45.513Z,13.30
2023-03-03T06:09:48.648Z,15.45
2023-03-03T06:14:53.227Z,15.07
2023-03-03T06:19:56.381Z,14.70
2023-03-03T06:24:59.580Z,14.50
2023-03-03T06:30:04.573Z,15.05
2023-03-03T06:35:08.396Z,14.40
2023-03-03T06:40:12.768Z,13.65
2023-03-03T06:45:18.107Z,15.48
2023-03-03T06:50:22.644Z,14.48
2023-03-03T06:55:25.820Z,18.47
2023-03-03T07:00:31.366Z,14.52
2023-03-03T07:05:34.720Z,12.18
2023-03-03T07:10:37.878Z,13.93
2023-03-03T07:15:43.408Z,14.02
2023-03-03T07:20:46.645Z,13.20
2023-03-03T07:25:49.773Z,12.90
2023-03-03T07:30:55.600Z,14.43
2023-03-03T07:36:00.645Z,12.20
2023-03-03T07:41:07.035Z,15.52
2023-03-03T07:46:28.521Z,13.80
2023-03-03T07:51:42.098Z,14.82
2023-03-03T07:56:45.948Z,12.10
2023-03-03T08:01:53.561Z,11.30
2023-03-03T08:06:58.006Z,13.65
2023-03-03T08:12:20.185Z,10.68
2023-03-03T08:17:26.453Z,9.98
2023-03-03T08:22:33.041Z,11.48
2023-03-03T08:27:36.200Z,8.63
2023-03-03T08:32:40.835Z,12.55
2023-03-03T08:37:44.083Z,9.70
2023-03-03T08:42:47.258Z,14.32
2023-03-03T08:48:06.257Z,9.25
2023-03-03T08:53:10.029Z,10.32
2023-03-03T08:58:13.378Z,11.32
2023-03-03T09:03:17.900Z,9.25
2023-03-03T09:08:21.225Z,9.40
2023-03-03T09:13:24.402Z,8.43
2023-03-03T09:18:36.075Z,7.68
2023-03-03T09:23:40.669Z,11.73
2023-03-03T09:28:44.062Z,10.40
2023-03-03T09:33:52.113Z,9.82
2023-03-03T09:38:56.084Z,9.77
2023-03-03T09:44:18.545Z,9.52
2023-03-03T09:49:32.578Z,8.90
2023-03-03T09:54:56.189Z,8.40
2023-03-03T10:00:21.139Z,10.50
2023-03-03T10:05:43.122Z,7.03
2023-03-03T10:10:55.600Z,7.45
2023-03-03T10:16:14.879Z,8.55
2023-03-03T10:21:25.892Z,6.68
2023-03-03T10:26:46.411Z,9.48
2023-03-03T10:32:09.494Z,7.78
2023-03-03T10:37:23.272Z,7.57
2023-03-03T10:42:39.697Z,7.97
2023-03-03T10:48:07.980Z,7.82
2023-03-03T10:53:23.553Z,8.18
2023-03-03T10:58:47.685Z,7.20
2023-03-03T11:04:13.745Z,8.60
2023-03-03T11:09:41.412Z,7.38
2023-03-03T11:14:51.116Z,8.40
2023-03-03T11:20:04.977Z,7.57
2023-03-03T11:25:22.675Z,8.10
2023-03-03T11:30:55.396Z,8.25
2023-03-03T11:36:11.459Z,7.80
2023-03-03T11:41:27.723Z,8.25
2023-03-03T11:46:36.743Z,9.40
2023-03-03T11:51:50.345Z,7.88
2023-03-03T11:57:02.779Z,7.45
2023-03-03T12:02:21.939Z,8.55
2023-03-03T12:07:33.981Z,8.63
2023-03-03T12:12:43.165Z,8.55
2023-03-03T12:18:03.308Z,9.57
2023-03-03T12:23:21.113Z,8.00
2023-03-03T12:28:29.133Z,7.75
2023-03-03T12:33:43.781Z,5.40
2023-03-03T12:38:55.456Z,7.45
2023-03-03T12:44:05.609Z,4.93
2023-03-03T12:49:08.829Z,4.70
2023-03-03T12:54:37.722Z,4.55
2023-03-03T12:59:50.439Z,4.68
2023-03-03T13:05:01.708Z,4.47
2023-03-03T13:10:15.564Z,4.25
2023-03-03T13:15:32.244Z,6.07
2023-03-03T13:20:46.225Z,4.80
2023-03-03T13:25:54.827Z,4.55
2023-03-03T13:31:04.675Z,4.72
2023-03-03T13:36:11.758Z,4.22
2023-03-03T13:41:22.636Z,4.75
2023-03-03T13:46:39.121Z,4.75
2023-03-03T13:51:48.762Z,4.03
2023-03-03T13:57:12.131Z,4.82
2023-03-03T14:02:41.069Z,6.03
2023-03-03T14:07:48.340Z,5.25
2023-03-03T14:13:00.283Z,6.93
2023-03-03T14:18:31.053Z,6.20
2023-03-03T14:23:42.319Z,5.82
2023-03-03T14:28:47.311Z,5.75
2023-03-03T14:34:03.150Z,4.68
2023-03-03T14:39:31.998Z,6.50
2023-03-03T14:44:38.265Z,6.40
2023-03-03T14:49:42.922Z,5.95
2023-03-03T14:54:48.788Z,7.43
2023-03-03T15:00:01.236Z,7.80
2023-03-03T15:05:19.708Z,9.27
2023-03-03T15:10:32.574Z,7.75
2023-03-03T15:15:36.152Z,12.02
2023-03-03T15:20:43.891Z,13.80
2023-03-03T15:25:57.741Z,16.65
2023-03-03T15:31:09.162Z,14.95
2023-03-03T15:36:26.332Z,14.90
2023-03-03T15:41:39.693Z,14.45
2023-03-03T15:46:59.195Z,15.98
2023-03-03T15:52:22.838Z,14.52
2023-03-03T15:57:42.294Z,16.23
2023-03-03T16:02:53.312Z,16.30
2023-03-03T16:08:14.177Z,14.68
2023-03-03T16:13:24.465Z,15.93
2023-03-03T16:18:37.661Z,15.30
2023-03-03T16:23:48.083Z,14.98
2023-03-03T16:29:09.995Z,16.58
2023-03-03T16:34:18.583Z,16.55
2023-03-03T16:39:31.396Z,16.67
2023-03-03T16:44:45.361Z,15.88
2023-03-03T16:49:57.161Z,17.00
2023-03-03T16:55:07.140Z,16.60
2023-03-03T17:00:13.828Z,16.05
2023-03-03T17:05:26.488Z,15.68
2023-03-03T17:10:36.613Z,15.23
2023-03-03T17:15:51.814Z,16.50
2023-03-03T17:26:14.216Z,20.90
2023-03-03T17:31:25.040Z,19.67
2023-03-03T17:36:39.889Z,21.13
2023-03-03T17:41:53.661Z,16.90
2023-03-03T17:47:01.585Z,17.00
2023-03-03T17:52:39.331Z,19.75
2023-03-03T17:57:58.810Z,17.77
2023-03-03T18:03:31.950Z,21.08
2023-03-03T18:09:02.006Z,21.33
2023-03-03T18:14:35.394Z,25.48
2023-03-03T18:20:00.285Z,22.35
2023-03-03T18:25:09.808Z,24.17
2023-03-03T18:30:54.678Z,25.52
2023-03-03T18:36:14.300Z,49.90
2023-03-03T18:41:24.478Z,31.70
2023-03-03T18:46:55.653Z,71.30
2023-03-03T18:52:24.619Z,68.75
2023-03-03T18:57:28.085Z,69.45
2023-03-03T19:02:39.192Z,58.35
2023-03-03T19:07:52.660Z,52.33
2023-03-03T19:12:58.015Z,37.92
2023-03-03T19:18:04.887Z,38.90
2023-03-03T19:23:14.301Z,34.38
2023-03-03T19:28:37.284Z,47.30
2023-03-03T19:33:57.267Z,82.00
2023-03-03T19:39:13.213Z,31.00
2023-03-03T19:44:32.532Z,23.85
2023-03-03T19:49:56.085Z,28.08
2023-03-03T19:55:13.843Z,25.92
2023-03-03T20:00:24.770Z,41.53
2023-03-03T20:05:40.835Z,23.60
2023-03-03T20:10:53.651Z,28.83
2023-03-03T20:16:08.240Z,47.90
2023-03-03T20:21:29.753Z,44.03
2023-03-03T20:26:40.293Z,31.88
2023-03-03T20:31:51.189Z,33.20
